Time;durP1;ratioP1;P1;durP2;ratioP2;P2;SDS_P1;SDS_P2;PMS_P1;PMS_P2;Temp;Humidity;BMP_temperature;BMP_pressure;BME280_temperature;BME280_humidity;BME280_pressure;Samples;Min_cycle;Max_cycle;Signal;HPM_P1;HPM_P2
2024/01/04 00:00:02;;;;;;;243.27;9.07;;;;;;;21.52;49.20;97110.16;7291901;19;130171;-42
2024/01/04 00:02:30;;;;;;;173.20;5.87;;;;;;;21.40;49.21;97095.25;7290947;19;130506;-39
2024/01/04 00:04:58;;;;;;;242.73;8.68;;;;;;;21.52;49.54;97102.31;7292446;19;131071;-43
2024/01/04 00:07:24;;;;;;;227.35;8.25;;;;;;;21.39;49.62;97094.44;7289102;19;129438;-40
2024/01/04 00:09:51;;;;;;;177.57;6.60;;;;;;;21.50;49.80;97121.81;7292352;19;129533;-40
2024/01/04 00:12:17;;;;;;;179.07;6.60;;;;;;;21.49;49.61;97115.78;7290619;19;131117;-40
2024/01/04 00:14:42;;;;;;;281.58;10.15;;;;;;;21.52;49.67;97122.41;7290943;19;129863;-40
2024/01/04 00:17:07;;;;;;;197.35;7.20;;;;;;;21.48;49.18;97116.78;7290027;19;129723;-40
2024/01/04 00:19:33;;;;;;;187.93;6.90;;;;;;;21.42;49.49;97094.03;7290511;19;130055;-41
2024/01/04 00:21:58;;;;;;;176.45;6.40;;;;;;;21.51;49.74;97113.78;7290504;19;129880;-40
2024/01/04 00:24:23;;;;;;;244.57;8.75;;;;;;;21.37;49.46;97096.44;7291550;19;130982;-40
2024/01/04 00:26:49;;;;;;;189.93;7.00;;;;;;;21.50;49.80;97122.59;7294084;19;131098;-39
2024/01/04 00:29:14;;;;;;;264.85;9.82;;;;;;;21.52;49.94;97119.78;7289995;19;131333;-39
2024/01/04 00:31:41;;;;;;;239.13;8.70;;;;;;;21.49;49.30;97126.25;7295889;19;131114;-43
2024/01/04 00:34:06;;;;;;;215.35;8.05;;;;;;;21.50;49.12;97121.81;7299211;19;129334;-40
2024/01/04 00:36:32;;;;;;;208.87;7.63;;;;;;;21.47;49.24;97120.41;7298947;19;132449;-40
2024/01/04 00:38:57;;;;;;;195.10;7.20;;;;;;;21.50;49.05;97127.84;7298001;19;130165;-39
2024/01/04 00:41:22;;;;;;;198.83;7.30;;;;;;;21.50;49.20;97121.81;7296014;19;130522;-42
2024/01/04 00:43:48;;;;;;;241.02;8.70;;;;;;;21.51;49.21;97120.81;7297068;19;129583;-41
2024/01/04 00:46:13;;;;;;;195.82;7.43;;;;;;;21.53;49.91;97126.66;7296220;19;129286;-39
2024/01/04 00:48:38;;;;;;;208.68;7.57;;;;;;;21.54;49.41;97129.06;7299315;19;130875;-41
2024/01/04 00:51:04;;;;;;;271.23;9.85;;;;;;;21.52;49.43;97125.03;7299154;19;131033;-38
2024/01/04 00:53:29;;;;;;;198.70;7.22;;;;;;;21.50;49.43;97127.84;7297217;19;129977;-43
2024/01/04 00:55:54;;;;;;;111.75;3.95;;;;;;;21.47;49.44;97123.00;7296641;19;129224;-43
2024/01/04 00:58:20;;;;;;;136.60;5.03;;;;;;;21.50;49.64;97127.84;7296843;19;130098;-41
2024/01/04 01:00:46;;;;;;;221.27;7.70;;;;;;;21.48;49.94;97114.19;7297222;19;129707;-40
2024/01/04 01:03:11;;;;;;;327.33;12.38;;;;;;;21.50;49.45;97122.59;7294047;19;130059;-41
2024/01/04 01:05:37;;;;;;;189.63;7.03;;;;;;;21.49;50.02;97128.84;7294039;19;129450;-44
2024/01/04 01:08:02;;;;;;;158.55;5.63;;;;;;;21.50;49.28;97122.59;7297683;19;131704;-40
2024/01/04 01:10:29;;;;;;;256.48;9.30;;;;;;;21.49;49.81;97126.25;7293312;19;130343;-39
2024/01/04 01:12:55;;;;;;;;;;;;;;;21.47;50.60;97123.00;7295028;19;130179;-40
2024/01/04 01:15:20;;;;;;;264.98;9.68;;;;;;;21.33;48.98;97108.31;7288166;19;130779;-39
2024/01/04 01:17:45;;;;;;;289.40;10.38;;;;;;;21.51;49.82;97134.69;7297167;19;130166;-40
2024/01/04 01:20:11;;;;;;;204.57;7.60;;;;;;;21.50;49.66;97130.44;7294856;19;130720;-38
2024/01/04 01:22:36;;;;;;;186.03;6.77;;;;;;;21.56;49.57;97134.91;7297760;19;132293;-38
2024/01/04 01:25:02;;;;;;;166.52;5.95;;;;;;;21.43;49.61;97119.19;7296162;19;129089;-38
2024/01/04 01:27:27;;;;;;;174.68;6.10;;;;;;;21.54;49.44;97138.72;7295096;19;129814;-41
2024/01/04 01:29:53;;;;;;;187.23;6.85;;;;;;;21.54;49.86;97133.47;7297150;19;130404;-39
2024/01/04 01:32:18;;;;;;;206.13;7.50;;;;;;;21.52;49.64;97138.91;7296713;19;130558;-39
2024/01/04 01:34:44;;;;;;;242.10;8.98;;;;;;;21.49;48.92;97147.16;7294354;19;131002;-40
2024/01/04 01:37:09;;;;;;;272.93;9.70;;;;;;;21.50;49.76;97146.13;7291988;19;130078;-42
2024/01/04 01:39:35;;;;;;;157.73;5.83;;;;;;;21.51;49.28;97134.69;7297543;19;131702;-40
2024/01/04 01:42:01;;;;;;;193.98;7.15;;;;;;;21.49;49.09;97147.16;7293213;19;129971;-40
2024/01/04 01:44:26;;;;;;;283.35;10.00;;;;;;;21.51;49.61;97139.91;7296687;19;129941;-38
2024/01/04 01:46:51;;;;;;;266.75;9.77;;;;;;;21.52;49.75;97146.75;7294387;19;133225;-42
2024/01/04 01:49:17;;;;;;;173.70;6.40;;;;;;;21.50;48.99;97138.28;7294663;19;130470;-42
2024/01/04 01:51:42;;;;;;;215.00;7.57;;;;;;;21.47;49.16;97138.69;7295931;19;130388;-39
2024/01/04 01:54:08;;;;;;;273.98;9.88;;;;;;;21.54;49.40;97155.22;7296682;19;130613;-39
2024/01/04 01:56:34;;;;;;;200.65;7.25;;;;;;;21.43;49.33;97121.81;7296292;19;130022;-43
2024/01/04 01:59:01;;;;;;;207.30;7.47;;;;;;;21.37;50.03;97112.13;7295940;19;130658;-39
2024/01/04 02:01:27;;;;;;;160.98;5.93;;;;;;;21.51;49.30;97145.16;7294100;19;129656;-39
2024/01/04 02:03:52;;;;;;;253.15;9.05;;;;;;;21.53;49.67;97147.56;7295554;19;129648;-40
2024/01/04 02:06:17;;;;;;;141.50;5.30;;;;;;;21.51;49.26;97144.34;7293258;19;129727;-41
2024/01/04 02:08:46;;;;;;;178.45;6.53;;;;;;;21.49;49.28;97147.16;7295315;19;130311;-40
2024/01/04 02:11:11;;;;;;;156.90;5.72;;;;;;;21.54;49.67;97138.72;7294655;19;130195;-38
2024/01/04 02:13:37;;;;;;;228.25;8.32;;;;;;;21.50;49.76;97147.97;7294340;19;130012;-41
2024/01/04 02:16:03;;;;;;;198.57;7.32;;;;;;;21.51;49.60;97149.56;7293135;19;129813;-41
2024/01/04 02:18:28;;;;;;;186.97;7.03;;;;;;;21.52;49.40;97149.38;7293679;19;129674;-38
2024/01/04 02:20:53;;;;;;;146.23;5.38;;;;;;;21.44;48.83;97139.09;7295192;19;129203;-38
2024/01/04 02:23:19;;;;;;;262.90;9.48;;;;;;;21.32;49.40;97130.22;7289588;19;129835;-42
2024/01/04 02:25:44;;;;;;;164.85;5.82;;;;;;;21.50;49.01;97161.81;7290593;19;131381;-40
2024/01/04 02:28:09;;;;;;;258.23;9.60;;;;;;;21.56;50.10;97155.00;7292458;19;130690;-39
2024/01/04 02:30:35;;;;;;;242.70;8.83;;;;;;;21.51;49.03;97147.75;7295190;19;129187;-40
2024/01/04 02:33:00;;;;;;;175.38;6.30;;;;;;;21.51;49.90;97152.19;7294718;19;129661;-37
2024/01/04 02:35:26;;;;;;;185.65;6.55;;;;;;;21.49;49.31;97147.16;7291710;19;131415;-42
2024/01/04 02:37:52;;;;;;;145.15;5.03;;;;;;;21.40;49.36;97132.63;7292808;19;129762;-39
2024/01/04 02:40:18;;;;;;;164.50;5.93;;;;;;;21.54;49.07;97165.66;7294332;19;129768;-41
2024/01/04 02:42:43;;;;;;;215.73;7.68;;;;;;;21.57;49.61;97162.66;7294047;19;129876;-39
2024/01/04 02:45:09;;;;;;;217.53;8.07;;;;;;;21.56;49.41;97158.44;7293253;19;132266;-40
2024/01/04 02:47:34;;;;;;;184.80;6.60;;;;;;;21.55;49.45;97167.25;7293523;19;130415;-40
2024/01/04 02:50:00;;;;;;;175.63;6.30;;;;;;;21.54;49.32;97170.06;7294471;19;129249;-40
2024/01/04 02:52:25;;;;;;;225.50;8.18;;;;;;;21.47;49.07;97162.22;7294981;19;131279;-40
2024/01/04 02:54:50;;;;;;;175.57;6.50;;;;;;;21.55;49.90;97163.88;7292938;19;130604;-44
2024/01/04 02:57:16;;;;;;;232.60;8.73;;;;;;;21.50;49.22;97156.59;7290835;19;130685;-43
2024/01/04 02:59:41;;;;;;;239.00;8.55;;;;;;;21.52;50.11;97167.66;7294673;19;130013;-41
2024/01/04 03:02:06;;;;;;;199.20;7.13;;;;;;;21.39;49.48;97141.50;7294189;19;130136;-43
2024/01/04 03:04:32;;;;;;;208.67;7.60;;;;;;;21.56;49.99;97163.66;7293236;19;128984;-40
2024/01/04 03:06:57;;;;;;;195.27;7.03;;;;;;;21.53;49.03;97158.84;7294595;19;130382;-39
2024/01/04 03:09:23;;;;;;;281.42;10.20;;;;;;;21.54;49.49;97160.44;7292852;19;130065;-44
2024/01/04 03:11:48;;;;;;;137.52;5.05;;;;;;;21.51;49.94;97160.84;7293789;19;129756;-43
2024/01/04 03:14:13;;;;;;;207.23;7.47;;;;;;;21.52;49.65;97164.22;7292929;19;131260;-39
2024/01/04 03:16:40;;;;;;;249.82;8.98;;;;;;;21.49;49.58;97165.44;7289994;19;130441;-38
2024/01/04 03:19:05;;;;;;;256.95;8.98;;;;;;;21.48;49.31;97160.41;7293694;19;130078;-40
2024/01/04 03:21:30;;;;;;;226.43;8.43;;;;;;;21.48;49.16;97157.81;7293740;19;130738;-40
2024/01/04 03:23:56;;;;;;;213.88;7.70;;;;;;;21.50;49.24;97166.25;7293352;19;130211;-39
2024/01/04 03:26:21;;;;;;;291.80;10.75;;;;;;;21.54;49.21;97160.44;7292927;19;130486;-39
2024/01/04 03:28:47;;;;;;;229.70;8.13;;;;;;;21.51;49.35;97163.44;7290284;19;129453;-39
2024/01/04 03:31:13;;;;;;;188.65;6.93;;;;;;;21.45;49.25;97166.84;7292525;19;130095;-39
2024/01/04 03:33:38;;;;;;;216.95;8.15;;;;;;;21.36;49.64;97147.13;7289680;19;130168;-39
2024/01/04 03:36:07;;;;;;;239.73;8.18;;;;;;;21.31;49.46;97153.94;7283600;19;130490;-38
2024/01/04 03:38:32;;;;;;;199.27;7.30;;;;;;;21.30;49.90;97158.38;7293453;19;129822;-40
2024/01/04 03:41:01;;;;;;;215.75;7.85;;;;;;;21.29;50.09;97159.34;7292122;19;129933;-40
2024/01/04 03:43:26;;;;;;;197.50;7.30;;;;;;;21.30;50.59;97149.72;7291884;19;130878;-39
2024/01/04 03:45:52;;;;;;;274.52;9.93;;;;;;;21.28;50.90;97165.59;7290381;19;129253;-37
2024/01/04 03:48:17;;;;;;;251.20;8.98;;;;;;;21.18;50.22;97139.03;7292999;19;129039;-40
2024/01/04 03:50:42;;;;;;;220.73;7.97;;;;;;;21.27;50.42;97155.34;7293101;19;131124;-38
2024/01/04 03:53:08;;;;;;;180.13;6.47;;;;;;;21.33;50.99;97157.97;7291605;19;131660;-40
2024/01/04 03:55:33;;;;;;;257.40;9.13;;;;;;;21.44;49.95;97160.00;7290338;19;130463;-41
2024/01/04 03:57:59;;;;;;;103.30;3.83;;;;;;;21.46;50.67;97159.81;7292041;19;129888;-38
2024/01/04 04:00:24;;;;;;;259.05;9.65;;;;;;;21.51;49.61;97162.63;7292142;19;129724;-38
2024/01/04 04:02:51;;;;;;;206.30;7.53;;;;;;;21.48;49.98;97149.97;7292231;19;130636;-41
2024/01/04 04:05:16;;;;;;;278.45;10.32;;;;;;;21.46;50.20;97158.00;7292223;19;129241;-40
2024/01/04 04:07:42;;;;;;;201.18;7.38;;;;;;;21.48;49.63;97161.25;7301382;19;130914;-39
2024/01/04 04:10:08;;;;;;;185.68;6.78;;;;;;;21.48;49.52;97156.00;7300111;19;130237;-40
2024/01/04 04:12:33;;;;;;;126.35;4.63;;;;;;;21.48;49.64;97158.63;7297183;19;129822;-43
2024/01/04 04:14:59;;;;;;;220.82;7.72;;;;;;;21.43;49.64;97163.63;7296645;19;130341;-41
2024/01/04 04:17:25;;;;;;;233.10;8.82;;;;;;;21.47;49.95;97170.06;7297220;19;129430;-38
2024/01/04 04:19:51;;;;;;;185.68;6.72;;;;;;;21.43;49.63;97171.47;7298521;19;129812;-39
2024/01/04 04:22:16;;;;;;;226.63;8.00;;;;;;;21.47;49.48;97175.28;7298025;19;131221;-42
2024/01/04 04:24:42;;;;;;;165.20;6.07;;;;;;;21.45;49.34;97173.91;7297375;19;131560;-41
2024/01/04 04:27:07;;;;;;;219.43;7.78;;;;;;;21.31;49.45;97149.53;7297879;19;129592;-38
2024/01/04 04:29:32;;;;;;;206.85;7.18;;;;;;;21.45;50.00;97174.69;7299169;19;129159;-38
2024/01/04 04:31:58;;;;;;;256.60;9.17;;;;;;;21.46;50.08;97178.91;7297365;19;131033;-38
2024/01/04 04:34:23;;;;;;;206.32;8.02;;;;;;;21.45;49.72;97177.28;7294966;19;132492;-41
2024/01/04 04:36:49;;;;;;;216.20;8.03;;;;;;;21.48;49.96;97182.16;7297595;19;129392;-41
2024/01/04 04:39:14;;;;;;;203.97;7.60;;;;;;;21.50;49.79;97180.13;7297053;19;129001;-40
2024/01/04 04:41:40;;;;;;;305.88;11.95;;;;;;;21.48;49.63;97174.31;7298815;19;131159;-37
2024/01/04 04:44:05;;;;;;;194.27;7.20;;;;;;;21.47;49.47;97172.69;7298700;19;131092;-41
2024/01/04 04:46:31;;;;;;;180.30;6.43;;;;;;;21.46;49.21;97178.91;7297574;19;129665;-42
2024/01/04 04:48:57;;;;;;;245.25;8.80;;;;;;;21.46;49.70;97183.34;7297175;19;129008;-38
2024/01/04 04:51:23;;;;;;;280.08;10.38;;;;;;;21.44;49.22;97170.47;7297428;19;130985;-40
2024/01/04 04:53:49;;;;;;;201.07;7.17;;;;;;;21.44;48.96;97180.91;7299198;19;130053;-41
2024/01/04 04:56:14;;;;;;;209.85;7.68;;;;;;;21.38;50.05;97194.78;7294829;19;130569;-41
2024/01/04 04:58:39;;;;;;;226.93;8.03;;;;;;;21.24;50.49;97185.28;7298606;19;129479;-38
2024/01/04 05:01:05;;;;;;;220.75;8.13;;;;;;;21.17;51.29;97194.09;7298103;19;130521;-40
2024/01/04 05:03:30;;;;;;;288.33;10.93;;;;;;;21.00;51.55;97171.91;7296745;19;130347;-39
2024/01/04 05:05:55;;;;;;;150.93;5.32;;;;;;;21.10;51.59;97199.31;7295119;19;129072;-40
2024/01/04 05:08:22;;;;;;;253.75;9.30;;;;;;;21.07;51.54;97210.16;7298042;19;131020;-40
2024/01/04 05:10:48;;;;;;;219.88;8.15;;;;;;;21.08;51.55;97208.31;7297961;19;129158;-39
2024/01/04 05:13:13;;;;;;;212.02;7.63;;;;;;;21.10;51.78;97207.13;7295580;19;130844;-40
2024/01/04 05:15:38;;;;;;;283.70;10.50;;;;;;;21.05;52.02;97196.47;7292403;19;130042;-39
2024/01/04 05:18:04;;;;;;;267.52;9.82;;;;;;;21.09;52.04;97205.50;7294689;19;132750;-39
2024/01/04 05:20:29;;;;;;;222.85;8.40;;;;;;;21.12;51.64;97214.78;7297045;19;130087;-42
2024/01/04 05:22:54;;;;;;;244.10;8.80;;;;;;;21.02;51.89;97207.31;7296069;19;130966;-39
2024/01/04 05:25:20;;;;;;;220.93;8.27;;;;;;;21.02;51.61;97220.38;7292752;19;129263;-38
2024/01/04 05:27:45;;;;;;;245.63;8.90;;;;;;;21.03;51.89;97218.53;7297590;19;131100;-41
2024/01/04 05:30:11;;;;;;;364.38;13.70;;;;;;;21.06;52.02;97218.97;7293458;19;129374;-40
2024/01/04 05:32:36;;;;;;;219.90;8.07;;;;;;;21.06;51.78;97220.75;7294181;19;132088;-41
2024/01/04 05:35:03;;;;;;;210.18;7.43;;;;;;;21.09;51.45;97226.41;7291399;19;131232;-39
2024/01/04 05:37:28;;;;;;;295.57;11.07;;;;;;;21.09;51.82;97228.22;7290164;19;132433;-40
2024/01/04 05:39:54;;;;;;;260.50;10.00;;;;;;;21.06;51.37;97237.25;7293799;19;130199;-44
2024/01/04 05:42:19;;;;;;;131.15;4.93;;;;;;;21.10;51.45;97240.28;7292218;19;130900;-38
2024/01/04 05:44:45;;;;;;;202.43;7.40;;;;;;;21.09;51.86;97234.25;7293269;19;131869;-38
2024/01/04 05:47:10;;;;;;;197.47;7.50;;;;;;;21.12;51.38;97253.97;7292109;19;129235;-42
2024/01/04 05:49:36;;;;;;;447.48;18.08;;;;;;;21.13;51.87;97251.16;7290593;19;131312;-41
2024/01/04 05:52:02;;;;;;;303.77;11.33;;;;;;;21.17;51.55;97256.81;7291017;19;130954;-39
2024/01/04 05:54:28;;;;;;;263.85;9.98;;;;;;;21.18;51.58;97264.44;7292391;19;130424;-38
2024/01/04 05:56:53;;;;;;;169.07;6.03;;;;;;;21.15;52.14;97270.06;7290710;19;129358;-42
2024/01/04 05:59:18;;;;;;;247.48;9.23;;;;;;;21.14;51.92;97272.88;7290409;19;130150;-41
2024/01/04 06:01:44;;;;;;;254.07;9.85;;;;;;;20.99;52.00;97270.34;7294339;19;130534;-39
2024/01/04 06:04:09;;;;;;;254.50;9.47;;;;;;;21.06;52.17;97283.47;7295917;19;132111;-40
2024/01/04 06:06:34;;;;;;;295.23;11.50;;;;;;;21.03;52.08;97289.06;7291407;19;129319;-41
2024/01/04 06:09:00;;;;;;;229.90;8.67;;;;;;;21.09;51.75;97290.94;7293031;19;130339;-43
2024/01/04 06:11:25;;;;;;;335.75;13.35;;;;;;;21.04;51.13;97281.03;7290586;19;130688;-42
2024/01/04 06:13:50;;;;;;;222.63;8.15;;;;;;;21.25;50.66;97301.88;7293396;19;130204;-40
2024/01/04 06:16:17;;;;;;;227.30;8.40;;;;;;;21.27;50.63;97306.91;7288974;19;131273;-39
2024/01/04 06:18:42;;;;;;;;;;;;;;;21.31;51.89;97306.31;7292416;19;130897;-41
2024/01/04 06:21:08;;;;;;;220.93;7.90;;;;;;;21.38;49.92;97316.81;7291912;19;130333;-41
2024/01/04 06:23:33;;;;;;;287.37;10.57;;;;;;;21.39;51.15;97329.69;7289947;19;129076;-39
2024/01/04 06:25:59;;;;;;;221.02;8.07;;;;;;;21.41;49.94;97329.50;7293450;19;131320;-39
2024/01/04 06:28:24;;;;;;;194.70;7.60;;;;;;;21.43;50.16;97336.16;7292361;19;130121;-38
2024/01/04 06:30:49;;;;;;;210.40;7.68;;;;;;;21.45;50.39;97331.53;7294263;19;130394;-43
2024/01/04 06:33:16;;;;;;;228.17;8.23;;;;;;;21.44;49.77;97335.16;7290171;19;130048;-41
2024/01/04 06:35:42;;;;;;;212.37;7.83;;;;;;;21.45;49.99;97339.38;7288009;19;129435;-39
2024/01/04 06:38:08;;;;;;;213.63;7.80;;;;;;;21.47;49.81;97342.59;7292998;19;130098;-38
2024/01/04 06:40:34;;;;;;;234.70;9.00;;;;;;;21.34;50.55;97326.84;7292880;19;131181;-40
2024/01/04 06:43:00;;;;;;;280.92;10.18;;;;;;;21.43;49.83;97349.22;7292709;19;129584;-39
2024/01/04 06:45:26;;;;;;;229.77;8.77;;;;;;;21.46;49.71;97345.41;7292714;19;129469;-39
2024/01/04 06:47:51;;;;;;;175.80;6.32;;;;;;;21.45;49.86;97351.66;7295253;19;133521;-38
2024/01/04 06:50:26;;;;;;;219.02;8.23;;;;;;;21.46;49.87;97367.13;7331273;19;129233;-39
2024/01/04 06:52:51;;;;;;;239.02;8.57;;;;;;;21.44;50.02;97371.75;7329686;19;129126;-39
2024/01/04 06:55:18;;;;;;;184.20;6.65;;;;;;;21.44;49.56;97374.34;7326417;19;132228;-39
2024/01/04 06:57:43;;;;;;;;;;;;;;;21.40;51.44;97370.50;7328283;19;130449;-38
2024/01/04 07:00:09;;;;;;;244.23;8.95;;;;;;;21.43;50.42;97385.00;7328225;19;129199;-39
2024/01/04 07:02:35;;;;;;;278.08;10.32;;;;;;;21.42;50.19;97378.97;7328612;19;130037;-39
2024/01/04 07:05:05;;;;;;;170.93;6.93;;;;;;;21.38;49.76;97382.97;7326934;19;130940;-40
2024/01/04 07:07:31;;;;;;;152.18;6.00;;;;;;;21.41;50.00;97387.81;7328324;19;131481;-39
2024/01/04 07:09:57;;;;;;;193.80;7.73;;;;;;;21.44;50.92;97390.03;7325749;19;131321;-39
2024/01/04 07:12:24;;;;;;;221.87;8.83;;;;;;;21.44;49.67;97390.03;7328222;19;132141;-38
2024/01/04 07:14:50;;;;;;;170.15;7.00;;;;;;;21.43;49.61;97393.66;7327063;19;129310;-39
2024/01/04 07:17:16;;;;;;;94.35;3.83;;;;;;;21.45;49.99;97394.25;7326484;19;129631;-39
2024/01/04 07:19:45;;;;;;;214.48;8.75;;;;;;;21.40;50.13;97394.03;7326254;19;129572;-37
2024/01/04 07:22:11;;;;;;;250.63;9.77;;;;;;;21.42;50.00;97394.66;7326603;19;129314;-39
2024/01/04 07:24:37;;;;;;;168.70;6.85;;;;;;;21.41;49.73;97395.66;7325205;19;130109;-38
2024/01/04 07:27:03;;;;;;;197.67;7.97;;;;;;;21.43;50.16;97392.84;7326660;19;130147;-38
2024/01/04 07:29:29;;;;;;;183.90;7.72;;;;;;;21.42;49.64;97401.72;7322157;19;131618;-39
2024/01/04 07:31:55;;;;;;;208.00;8.25;;;;;;;21.42;49.48;97412.16;7326927;19;129573;-38
2024/01/04 07:34:21;;;;;;;174.37;6.83;;;;;;;21.31;49.23;97395.19;7326704;19;130679;-38
2024/01/04 07:36:47;;;;;;;124.75;4.85;;;;;;;21.43;49.79;97408.53;7326349;19;130776;-39
2024/01/04 07:39:12;;;;;;;199.77;7.73;;;;;;;21.34;50.00;97393.97;7327991;19;132051;-41
2024/01/04 07:41:37;;;;;;;284.98;11.75;;;;;;;21.43;49.98;97419.00;7324730;19;130579;-36
2024/01/04 07:44:03;;;;;;;163.23;6.47;;;;;;;21.43;49.78;97419.00;7326300;19;130585;-37
2024/01/04 07:46:28;;;;;;;136.10;5.50;;;;;;;21.41;49.36;97421.81;7326143;19;130429;-39
2024/01/04 07:48:53;;;;;;;230.03;9.20;;;;;;;21.42;49.48;97427.84;7325424;19;130615;-40
2024/01/04 07:51:19;;;;;;;235.90;9.07;;;;;;;21.44;49.27;97425.81;7326234;19;129149;-40
2024/01/04 07:53:44;;;;;;;154.47;5.97;;;;;;;21.44;49.22;97420.59;7320465;19;132282;-40
2024/01/04 07:56:09;;;;;;;216.97;8.50;;;;;;;21.46;49.78;97423.84;7319108;19;131614;-39
2024/01/04 07:58:35;;;;;;;262.52;10.52;;;;;;;21.42;49.91;97423.41;7326822;19;129744;-39
2024/01/04 08:01:00;;;;;;;238.27;9.87;;;;;;;21.43;49.22;97425.03;7301769;19;131382;-38
2024/01/04 08:03:25;;;;;;;160.10;6.43;;;;;;;21.39;50.01;97413.34;7295497;19;130024;-37
2024/01/04 08:05:51;;;;;;;216.88;8.60;;;;;;;21.27;49.94;97404.41;7294511;19;131242;-41
2024/01/04 08:08:16;;;;;;;163.13;6.43;;;;;;;21.45;50.18;97432.69;7297438;19;129305;-41
2024/01/04 08:10:41;;;;;;;185.50;7.78;;;;;;;21.39;49.26;97429.00;7298173;19;131728;-38
2024/01/04 08:13:08;;;;;;;238.38;9.40;;;;;;;21.37;49.49;97428.41;7295946;19;130130;-37
2024/01/04 08:15:33;;;;;;;159.13;6.07;;;;;;;21.29;49.77;97423.31;7295233;19;135653;-39
2024/01/04 08:18:00;;;;;;;155.02;6.25;;;;;;;21.27;49.61;97425.31;7297740;19;129466;-41
2024/01/04 08:20:26;;;;;;;170.60;6.85;;;;;;;21.42;49.86;97444.31;7297394;19;129509;-39
2024/01/04 08:22:52;;;;;;;215.20;8.73;;;;;;;21.44;49.81;97439.72;7295806;19;130049;-43
2024/01/04 08:25:17;;;;;;;163.60;6.45;;;;;;;21.43;49.44;97445.94;7293606;19;131193;-42
2024/01/04 08:27:43;;;;;;;183.30;7.63;;;;;;;21.43;50.00;97445.94;7297560;19;129122;-42
2024/01/04 08:30:09;;;;;;;187.65;7.40;;;;;;;21.45;49.80;97456.22;7295401;19;130747;-40
2024/01/04 08:32:35;;;;;;;;;;;;;;;21.40;50.58;97464.59;7295920;19;130133;-41
2024/01/04 08:35:00;;;;;;;229.27;8.93;;;;;;;21.43;49.53;97460.81;7295025;19;129518;-42
2024/01/04 08:37:25;;;;;;;201.43;8.10;;;;;;;21.43;49.68;97466.88;7296455;19;129569;-41
2024/01/04 08:39:52;;;;;;;190.20;7.65;;;;;;;21.44;49.38;97463.25;7297252;19;130877;-38
2024/01/04 08:42:17;;;;;;;218.50;9.02;;;;;;;21.47;49.74;97468.09;7295142;19;131518;-40
2024/01/04 08:44:43;;;;;;;238.02;9.57;;;;;;;21.45;50.45;97457.00;7289750;19;130375;-41
2024/01/04 08:47:08;;;;;;;211.43;8.27;;;;;;;21.44;49.90;97463.25;7297342;19;131933;-41
2024/01/04 08:49:33;;;;;;;205.20;8.45;;;;;;;21.39;49.09;97473.44;7294440;19;130470;-37
2024/01/04 08:51:59;;;;;;;200.65;7.70;;;;;;;21.31;49.58;97478.81;7295374;19;129027;-40
2024/01/04 08:54:24;;;;;;;160.27;6.25;;;;;;;21.29;50.46;97482.59;7296037;19;130282;-42
2024/01/04 08:56:49;;;;;;;173.48;6.95;;;;;;;21.28;50.13;97476.59;7295808;19;129219;-40
2024/01/04 08:59:15;;;;;;;189.35;7.45;;;;;;;21.27;50.39;97472.34;7293446;19;129108;-39
2024/01/04 09:01:40;;;;;;;297.65;12.50;;;;;;;21.26;51.13;97475.16;7294811;19;129381;-38
2024/01/04 09:04:05;;;;;;;201.65;7.82;;;;;;;21.24;51.03;97488.41;7296267;19;131778;-39
2024/01/04 09:06:33;;;;;;;177.37;7.23;;;;;;;21.24;51.00;97493.63;7296672;19;131276;-40
2024/01/04 09:08:59;;;;;;;174.30;6.95;;;;;;;21.25;51.50;97492.66;7294703;19;130399;-39
2024/01/04 09:11:28;;;;;;;264.17;10.65;;;;;;;21.26;51.49;97491.66;7289663;19;130490;-38
2024/01/04 09:13:53;;;;;;;172.02;7.13;;;;;;;21.30;51.71;97498.13;7293723;19;130505;-40
2024/01/04 09:16:18;;;;;;;185.50;7.32;;;;;;;21.37;50.25;97509.41;7294177;19;129514;-40
2024/01/04 09:18:44;;;;;;;183.07;7.68;;;;;;;21.34;50.72;97503.75;7296118;19;133088;-38
2024/01/04 09:21:09;;;;;;;209.93;8.40;;;;;;;21.36;50.46;97510.44;7294180;19;130232;-43
2024/01/04 09:23:34;;;;;;;100.13;3.95;;;;;;;21.37;50.52;97519.09;7293840;19;129897;-38
2024/01/04 09:26:08;;;;;;;213.80;8.63;;;;;;;21.36;50.53;97517.47;7292836;19;129080;-40
2024/01/04 09:28:34;;;;;;;196.65;7.93;;;;;;;21.39;50.27;97519.69;7294302;19;130373;-38
2024/01/04 09:30:59;;;;;;;140.45;5.35;;;;;;;21.29;50.05;97506.94;7295847;19;130235;-38
2024/01/04 09:33:24;;;;;;;207.40;8.20;;;;;;;21.41;49.99;97520.31;7293058;19;129685;-38
2024/01/04 09:35:50;;;;;;;200.27;8.30;;;;;;;21.40;50.01;97529.16;7292883;19;129511;-40
2024/01/04 09:38:15;;;;;;;185.57;7.27;;;;;;;21.41;50.07;97526.34;7294621;19;132192;-39
2024/01/04 09:40:41;;;;;;;281.45;11.35;;;;;;;21.44;49.63;97531.22;7293865;19;131592;-39
2024/01/04 09:43:08;;;;;;;130.18;5.13;;;;;;;21.41;49.69;97526.34;7292349;19;129817;-38
2024/01/04 09:45:37;;;;;;;158.15;6.15;;;;;;;21.43;50.27;97539.25;7288441;19;129852;-38
2024/01/04 09:48:07;;;;;;;172.95;6.72;;;;;;;21.43;50.46;97545.28;7288652;19;129843;-38
2024/01/04 09:50:34;;;;;;;246.68;9.75;;;;;;;21.39;49.62;97556.28;7289569;19;131096;-38
2024/01/04 09:53:01;;;;;;;187.40;7.45;;;;;;;21.41;49.54;97557.72;7291274;19;131674;-42
2024/01/04 09:55:26;;;;;;;;;;;;;;;21.38;51.20;97552.88;7292739;19;131041;-38
2024/01/04 09:57:52;;;;;;;185.65;7.82;;;;;;;21.41;49.26;97557.72;7295077;19;132341;-41
2024/01/04 10:00:18;;;;;;;212.80;8.27;;;;;;;21.31;49.49;97546.78;7293533;19;131172;-42
2024/01/04 10:02:43;;;;;;;165.70;6.37;;;;;;;21.39;49.85;97554.50;7294122;19;131693;-42
2024/01/04 10:05:14;;;;;;;100.20;3.97;;;;;;;21.41;49.79;97562.13;7292934;19;129756;-40
2024/01/04 10:07:44;;;;;;;114.88;4.63;;;;;;;21.38;50.46;97555.50;7291141;19;130057;-40
2024/01/04 10:10:16;;;;;;;165.43;6.43;;;;;;;21.37;50.11;97561.69;7292355;19;130204;-37
2024/01/04 10:12:42;;;;;;;232.15;9.25;;;;;;;21.42;49.94;97559.34;7292352;19;130800;-39
2024/01/04 10:15:11;;;;;;;79.28;3.17;;;;;;;21.31;49.74;97548.56;7293825;19;129611;-39
2024/01/04 10:17:38;;;;;;;213.00;8.35;;;;;;;21.39;49.02;97575.41;7293868;19;131363;-39
2024/01/04 10:20:04;;;;;;;161.55;6.43;;;;;;;21.40;49.24;97571.78;7292446;19;130126;-39
2024/01/04 10:22:30;;;;;;;186.50;7.17;;;;;;;21.42;50.20;97576.84;7293267;19;133657;-38
2024/01/04 10:25:08;;;;;;;163.63;6.53;;;;;;;21.38;50.18;97588.66;7292253;19;129913;-38
2024/01/04 10:27:34;;;;;;;183.32;7.35;;;;;;;21.36;49.16;97578.38;7293866;19;129458;-39
2024/01/04 10:30:06;;;;;;;154.88;6.32;;;;;;;21.34;50.02;97582.16;7289654;19;130072;-39
2024/01/04 10:32:32;;;;;;;204.38;7.95;;;;;;;21.36;49.82;97574.97;7291313;19;130874;-38
2024/01/04 10:35:06;;;;;;;130.07;5.00;;;;;;;21.38;50.14;97583.44;7294040;19;130385;-38
2024/01/04 10:37:32;;;;;;;173.45;7.07;;;;;;;21.42;49.58;97580.25;7294010;19;129065;-39
2024/01/04 10:40:03;;;;;;;169.33;6.77;;;;;;;21.39;50.10;97578.00;7291900;19;130690;-40
2024/01/04 10:42:29;;;;;;;179.55;7.30;;;;;;;21.39;49.33;97585.84;7291672;19;132677;-39
2024/01/04 10:44:55;;;;;;;248.30;9.93;;;;;;;21.38;49.31;97573.78;7291378;19;130728;-39
2024/01/04 10:47:20;;;;;;;235.70;9.47;;;;;;;21.38;49.15;97593.88;7293123;19;129288;-39
2024/01/04 10:49:47;;;;;;;126.93;5.13;;;;;;;21.38;49.63;97588.66;7287991;19;132106;-39
2024/01/04 10:52:15;;;;;;;110.47;4.18;;;;;;;21.41;49.32;97596.94;7291131;19;130506;-39
2024/01/04 10:54:43;;;;;;;261.92;10.35;;;;;;;21.42;49.91;97597.75;7291010;19;130202;-39
2024/01/04 10:57:12;;;;;;;194.40;7.60;;;;;;;21.26;50.16;97585.72;7293846;19;129383;-40
2024/01/04 10:59:39;;;;;;;162.75;6.38;;;;;;;21.39;49.38;97601.53;7292533;19;130219;-40
2024/01/04 11:02:05;;;;;;;208.93;8.45;;;;;;;21.39;49.68;97606.75;7289637;19;131034;-39